sensor_id;sensor_type;location;lat;lon;timestamp;P1;durP1;ratioP1;P2;durP2;ratioP2
52946;SDS011;45776;40.400;17.260;2022-09-03T00:01:22;3.88;;;0.65;;
52946;SDS011;45776;40.400;17.260;2022-09-03T00:05:25;2.88;;;0.80;;
52946;SDS011;45776;40.400;17.260;2022-09-03T00:13:44;1.20;;;0.88;;
52946;SDS011;45776;40.400;17.260;2022-09-03T00:16:21;3.28;;;0.70;;
52946;SDS011;45776;40.400;17.260;2022-09-03T00:19:12;1.02;;;0.80;;
52946;SDS011;45776;40.400;17.260;2022-09-03T00:21:52;0.70;;;0.65;;
52946;SDS011;45776;40.400;17.260;2022-09-03T00:24:22;2.83;;;0.73;;
52946;SDS011;45776;40.400;17.260;2022-09-03T00:27:00;2.53;;;1.38;;
52946;SDS011;45776;40.400;17.260;2022-09-03T00:29:48;5.22;;;0.82;;
52946;SDS011;45776;40.400;17.260;2022-09-03T00:32:20;2.80;;;0.80;;
52946;SDS011;45776;40.400;17.260;2022-09-03T00:35:27;1.85;;;0.70;;
52946;SDS011;45776;40.400;17.260;2022-09-03T00:38:07;2.92;;;0.93;;
52946;SDS011;45776;40.400;17.260;2022-09-03T00:46:46;1.27;;;0.90;;
52946;SDS011;45776;40.400;17.260;2022-09-03T00:57:29;2.67;;;0.70;;
52946;SDS011;45776;40.400;17.260;2022-09-03T01:00:21;2.35;;;0.80;;
52946;SDS011;45776;40.400;17.260;2022-09-03T01:08:17;2.92;;;0.70;;
52946;SDS011;45776;40.400;17.260;2022-09-03T01:33:46;3.47;;;0.95;;
52946;SDS011;45776;40.400;17.260;2022-09-03T01:36:50;4.15;;;1.30;;
52946;SDS011;45776;40.400;17.260;2022-09-03T01:51:15;1.83;;;1.00;;
52946;SDS011;45776;40.400;17.260;2022-09-03T01:59:46;4.13;;;0.98;;
52946;SDS011;45776;40.400;17.260;2022-09-03T02:02:45;7.57;;;1.10;;
52946;SDS011;45776;40.400;17.260;2022-09-03T02:07:48;4.20;;;1.00;;
52946;SDS011;45776;40.400;17.260;2022-09-03T02:10:21;2.05;;;1.10;;
52946;SDS011;45776;40.400;17.260;2022-09-03T02:12:58;4.72;;;1.00;;
52946;SDS011;45776;40.400;17.260;2022-09-03T02:15:50;5.47;;;1.63;;
52946;SDS011;45776;40.400;17.260;2022-09-03T02:18:26;2.47;;;1.50;;
52946;SDS011;45776;40.400;17.260;2022-09-03T02:21:01;6.70;;;1.25;;
52946;SDS011;45776;40.400;17.260;2022-09-03T02:23:34;6.00;;;1.40;;
52946;SDS011;45776;40.400;17.260;2022-09-03T02:26:06;3.75;;;1.10;;
52946;SDS011;45776;40.400;17.260;2022-09-03T02:28:36;3.17;;;1.17;;
52946;SDS011;45776;40.400;17.260;2022-09-03T02:31:02;4.28;;;1.20;;
52946;SDS011;45776;40.400;17.260;2022-09-03T02:33:31;4.00;;;1.30;;
52946;SDS011;45776;40.400;17.260;2022-09-03T02:36:06;2.42;;;1.08;;
52946;SDS011;45776;40.400;17.260;2022-09-03T02:38:41;2.38;;;1.00;;
52946;SDS011;45776;40.400;17.260;2022-09-03T02:41:13;3.30;;;0.95;;
52946;SDS011;45776;40.400;17.260;2022-09-03T02:43:52;1.92;;;0.90;;
52946;SDS011;45776;40.400;17.260;2022-09-03T02:46:32;1.95;;;1.00;;
52946;SDS011;45776;40.400;17.260;2022-09-03T02:49:03;4.03;;;1.10;;
52946;SDS011;45776;40.400;17.260;2022-09-03T02:51:37;4.70;;;1.13;;
52946;SDS011;45776;40.400;17.260;2022-09-03T02:54:06;2.08;;;1.02;;
52946;SDS011;45776;40.400;17.260;2022-09-03T02:56:36;2.80;;;1.00;;
52946;SDS011;45776;40.400;17.260;2022-09-03T02:59:05;3.10;;;1.00;;
52946;SDS011;45776;40.400;17.260;2022-09-03T03:01:38;2.90;;;1.23;;
52946;SDS011;45776;40.400;17.260;2022-09-03T03:04:50;2.10;;;1.08;;
52946;SDS011;45776;40.400;17.260;2022-09-03T03:07:23;3.05;;;1.25;;
52946;SDS011;45776;40.400;17.260;2022-09-03T03:09:50;2.42;;;0.90;;
52946;SDS011;45776;40.400;17.260;2022-09-03T03:12:22;2.53;;;1.00;;
52946;SDS011;45776;40.400;17.260;2022-09-03T03:14:50;4.93;;;1.17;;
52946;SDS011;45776;40.400;17.260;2022-09-03T03:17:21;1.58;;;1.02;;
52946;SDS011;45776;40.400;17.260;2022-09-03T03:19:47;4.43;;;1.20;;
52946;SDS011;45776;40.400;17.260;2022-09-03T03:22:14;3.58;;;1.48;;
52946;SDS011;45776;40.400;17.260;2022-09-03T03:24:40;4.90;;;1.65;;
52946;SDS011;45776;40.400;17.260;2022-09-03T03:27:06;2.90;;;1.35;;
52946;SDS011;45776;40.400;17.260;2022-09-03T03:29:38;4.55;;;1.20;;
52946;SDS011;45776;40.400;17.260;2022-09-03T03:32:20;4.30;;;1.25;;
52946;SDS011;45776;40.400;17.260;2022-09-03T03:34:45;2.63;;;1.25;;
52946;SDS011;45776;40.400;17.260;2022-09-03T03:37:11;5.65;;;1.20;;
52946;SDS011;45776;40.400;17.260;2022-09-03T03:39:39;3.25;;;1.00;;
52946;SDS011;45776;40.400;17.260;2022-09-03T03:42:05;2.13;;;0.98;;
52946;SDS011;45776;40.400;17.260;2022-09-03T03:44:33;3.95;;;1.55;;
52946;SDS011;45776;40.400;17.260;2022-09-03T03:47:02;3.90;;;1.38;;
52946;SDS011;45776;40.400;17.260;2022-09-03T03:49:32;4.20;;;1.23;;
52946;SDS011;45776;40.400;17.260;2022-09-03T03:52:07;7.55;;;1.58;;
52946;SDS011;45776;40.400;17.260;2022-09-03T03:54:54;5.65;;;1.40;;
52946;SDS011;45776;40.400;17.260;2022-09-03T03:57:21;2.80;;;1.23;;
52946;SDS011;45776;40.400;17.260;2022-09-03T03:59:53;2.70;;;1.25;;
52946;SDS011;45776;40.400;17.260;2022-09-03T04:02:21;3.03;;;1.35;;
52946;SDS011;45776;40.400;17.260;2022-09-03T04:04:50;4.05;;;1.45;;
52946;SDS011;45776;40.400;17.260;2022-09-03T04:07:18;3.05;;;1.27;;
52946;SDS011;45776;40.400;17.260;2022-09-03T04:09:45;2.90;;;1.52;;
52946;SDS011;45776;40.400;17.260;2022-09-03T04:12:22;3.97;;;1.45;;
52946;SDS011;45776;40.400;17.260;2022-09-03T04:14:54;3.05;;;1.30;;
52946;SDS011;45776;40.400;17.260;2022-09-03T04:17:30;3.55;;;1.25;;
52946;SDS011;45776;40.400;17.260;2022-09-03T04:20:08;2.15;;;1.33;;
52946;SDS011;45776;40.400;17.260;2022-09-03T04:23:34;2.67;;;1.23;;
52946;SDS011;45776;40.400;17.260;2022-09-03T04:26:18;3.83;;;1.40;;
52946;SDS011;45776;40.400;17.260;2022-09-03T04:29:26;5.03;;;1.30;;
52946;SDS011;45776;40.400;17.260;2022-09-03T04:31:55;2.80;;;1.33;;
52946;SDS011;45776;40.400;17.260;2022-09-03T04:34:42;4.45;;;1.75;;
52946;SDS011;45776;40.400;17.260;2022-09-03T04:37:24;2.40;;;1.20;;
52946;SDS011;45776;40.400;17.260;2022-09-03T04:39:50;2.80;;;1.55;;
52946;SDS011;45776;40.400;17.260;2022-09-03T04:42:19;3.20;;;1.60;;
52946;SDS011;45776;40.400;17.260;2022-09-03T04:44:49;4.28;;;1.60;;
52946;SDS011;45776;40.400;17.260;2022-09-03T04:47:15;10.15;;;2.33;;
52946;SDS011;45776;40.400;17.260;2022-09-03T04:49:41;5.72;;;1.95;;
52946;SDS011;45776;40.400;17.260;2022-09-03T04:53:00;6.13;;;2.67;;
52946;SDS011;45776;40.400;17.260;2022-09-03T04:55:32;7.10;;;2.38;;
52946;SDS011;45776;40.400;17.260;2022-09-03T04:58:01;4.90;;;2.03;;
52946;SDS011;45776;40.400;17.260;2022-09-03T05:00:29;6.35;;;2.63;;
52946;SDS011;45776;40.400;17.260;2022-09-03T05:02:59;3.97;;;2.60;;
52946;SDS011;45776;40.400;17.260;2022-09-03T05:05:34;4.00;;;2.40;;
52946;SDS011;45776;40.400;17.260;2022-09-03T05:08:00;6.30;;;2.17;;
52946;SDS011;45776;40.400;17.260;2022-09-03T05:10:56;3.95;;;1.88;;
52946;SDS011;45776;40.400;17.260;2022-09-03T05:13:24;2.97;;;1.60;;
52946;SDS011;45776;40.400;17.260;2022-09-03T05:15:59;2.55;;;1.70;;
52946;SDS011;45776;40.400;17.260;2022-09-03T05:18:26;4.63;;;1.60;;
52946;SDS011;45776;40.400;17.260;2022-09-03T05:20:57;4.68;;;1.27;;
52946;SDS011;45776;40.400;17.260;2022-09-03T05:23:39;3.08;;;1.60;;
52946;SDS011;45776;40.400;17.260;2022-09-03T05:26:12;4.38;;;1.77;;
52946;SDS011;45776;40.400;17.260;2022-09-03T05:28:51;2.20;;;1.30;;
52946;SDS011;45776;40.400;17.260;2022-09-03T05:31:24;4.85;;;1.92;;
52946;SDS011;45776;40.400;17.260;2022-09-03T05:34:03;2.40;;;1.40;;
52946;SDS011;45776;40.400;17.260;2022-09-03T05:36:34;4.37;;;1.70;;
52946;SDS011;45776;40.400;17.260;2022-09-03T05:39:04;3.42;;;1.52;;
52946;SDS011;45776;40.400;17.260;2022-09-03T05:41:42;4.43;;;1.42;;
52946;SDS011;45776;40.400;17.260;2022-09-03T05:44:19;2.83;;;1.75;;
52946;SDS011;45776;40.400;17.260;2022-09-03T05:49:18;3.65;;;1.33;;
52946;SDS011;45776;40.400;17.260;2022-09-03T05:51:44;4.43;;;1.60;;
52946;SDS011;45776;40.400;17.260;2022-09-03T05:54:24;3.88;;;1.52;;
52946;SDS011;45776;40.400;17.260;2022-09-03T05:57:51;3.70;;;1.48;;
52946;SDS011;45776;40.400;17.260;2022-09-03T06:01:32;4.85;;;1.75;;
52946;SDS011;45776;40.400;17.260;2022-09-03T06:07:23;8.50;;;2.42;;
52946;SDS011;45776;40.400;17.260;2022-09-03T06:10:47;3.78;;;1.83;;
52946;SDS011;45776;40.400;17.260;2022-09-03T06:13:25;5.28;;;1.85;;
52946;SDS011;45776;40.400;17.260;2022-09-03T06:20:02;3.42;;;1.88;;
52946;SDS011;45776;40.400;17.260;2022-09-03T06:23:28;9.27;;;1.95;;
52946;SDS011;45776;40.400;17.260;2022-09-03T06:26:10;8.40;;;1.70;;
52946;SDS011;45776;40.400;17.260;2022-09-03T06:28:39;7.60;;;2.40;;
52946;SDS011;45776;40.400;17.260;2022-09-03T06:31:11;5.07;;;2.60;;
52946;SDS011;45776;40.400;17.260;2022-09-03T06:33:44;8.35;;;3.45;;
52946;SDS011;45776;40.400;17.260;2022-09-03T06:36:18;9.35;;;3.63;;
52946;SDS011;45776;40.400;17.260;2022-09-03T06:38:53;6.28;;;3.25;;
52946;SDS011;45776;40.400;17.260;2022-09-03T06:41:24;8.00;;;2.55;;
52946;SDS011;45776;40.400;17.260;2022-09-03T06:44:00;4.90;;;2.60;;
52946;SDS011;45776;40.400;17.260;2022-09-03T06:46:36;5.22;;;2.03;;
52946;SDS011;45776;40.400;17.260;2022-09-03T06:49:06;4.30;;;2.00;;
52946;SDS011;45776;40.400;17.260;2022-09-03T06:52:30;7.47;;;2.13;;
52946;SDS011;45776;40.400;17.260;2022-09-03T06:55:56;3.03;;;1.60;;
52946;SDS011;45776;40.400;17.260;2022-09-03T06:59:22;3.90;;;1.40;;
52946;SDS011;45776;40.400;17.260;2022-09-03T07:02:47;4.28;;;1.48;;
52946;SDS011;45776;40.400;17.260;2022-09-03T07:06:16;6.55;;;1.70;;
52946;SDS011;45776;40.400;17.260;2022-09-03T07:09:40;4.45;;;1.80;;
52946;SDS011;45776;40.400;17.260;2022-09-03T07:13:04;8.93;;;2.20;;
52946;SDS011;45776;40.400;17.260;2022-09-03T07:16:33;5.28;;;2.08;;
52946;SDS011;45776;40.400;17.260;2022-09-03T07:19:57;4.00;;;1.77;;
52946;SDS011;45776;40.400;17.260;2022-09-03T07:23:22;5.05;;;2.20;;
52946;SDS011;45776;40.400;17.260;2022-09-03T07:26:46;3.15;;;1.40;;
52946;SDS011;45776;40.400;17.260;2022-09-03T07:30:11;4.45;;;1.58;;
52946;SDS011;45776;40.400;17.260;2022-09-03T07:33:37;3.65;;;1.60;;
52946;SDS011;45776;40.400;17.260;2022-09-03T07:37:01;1.73;;;1.63;;
52946;SDS011;45776;40.400;17.260;2022-09-03T07:40:26;4.75;;;2.25;;
52946;SDS011;45776;40.400;17.260;2022-09-03T07:42:55;2.17;;;1.20;;
52946;SDS011;45776;40.400;17.260;2022-09-03T07:45:48;4.40;;;1.70;;
52946;SDS011;45776;40.400;17.260;2022-09-03T07:48:14;3.85;;;1.40;;
52946;SDS011;45776;40.400;17.260;2022-09-03T07:51:38;4.22;;;1.80;;
52946;SDS011;45776;40.400;17.260;2022-09-03T07:55:02;4.00;;;1.75;;
52946;SDS011;45776;40.400;17.260;2022-09-03T07:58:28;3.72;;;1.80;;
52946;SDS011;45776;40.400;17.260;2022-09-03T08:01:52;1.80;;;1.48;;
52946;SDS011;45776;40.400;17.260;2022-09-03T08:05:17;3.28;;;1.83;;
52946;SDS011;45776;40.400;17.260;2022-09-03T08:08:42;3.78;;;1.70;;
52946;SDS011;45776;40.400;17.260;2022-09-03T08:12:07;6.38;;;1.88;;
52946;SDS011;45776;40.400;17.260;2022-09-03T08:15:32;5.90;;;2.22;;
52946;SDS011;45776;40.400;17.260;2022-09-03T08:18:57;2.38;;;1.50;;
52946;SDS011;45776;40.400;17.260;2022-09-03T08:21:23;3.47;;;1.73;;
52946;SDS011;45776;40.400;17.260;2022-09-03T08:24:49;3.63;;;1.55;;
52946;SDS011;45776;40.400;17.260;2022-09-03T08:28:13;3.80;;;1.50;;
52946;SDS011;45776;40.400;17.260;2022-09-03T08:31:37;4.82;;;1.50;;
52946;SDS011;45776;40.400;17.260;2022-09-03T08:35:07;4.05;;;1.70;;
52946;SDS011;45776;40.400;17.260;2022-09-03T08:38:32;2.70;;;1.50;;
52946;SDS011;45776;40.400;17.260;2022-09-03T08:45:35;3.60;;;1.30;;
52946;SDS011;45776;40.400;17.260;2022-09-03T08:49:08;2.92;;;1.20;;
52946;SDS011;45776;40.400;17.260;2022-09-03T08:52:54;5.53;;;1.70;;
52946;SDS011;45776;40.400;17.260;2022-09-03T08:56:26;5.63;;;0.95;;
52946;SDS011;45776;40.400;17.260;2022-09-03T08:59:52;2.03;;;1.10;;
52946;SDS011;45776;40.400;17.260;2022-09-03T09:07:34;2.55;;;1.55;;
52946;SDS011;45776;40.400;17.260;2022-09-03T09:18:20;2.72;;;1.02;;
52946;SDS011;45776;40.400;17.260;2022-09-03T09:22:09;1.35;;;0.90;;
52946;SDS011;45776;40.400;17.260;2022-09-03T09:25:51;2.67;;;0.70;;
52946;SDS011;45776;40.400;17.260;2022-09-03T09:29:25;2.00;;;0.80;;
52946;SDS011;45776;40.400;17.260;2022-09-03T09:31:53;1.05;;;0.70;;
52946;SDS011;45776;40.400;17.260;2022-09-03T09:35:17;3.00;;;0.75;;
52946;SDS011;45776;40.400;17.260;2022-09-03T09:38:43;2.17;;;0.90;;
52946;SDS011;45776;40.400;17.260;2022-09-03T09:42:20;2.17;;;0.80;;
52946;SDS011;45776;40.400;17.260;2022-09-03T09:45:51;7.43;;;1.40;;
52946;SDS011;45776;40.400;17.260;2022-09-03T09:53:06;3.30;;;1.20;;
52946;SDS011;45776;40.400;17.260;2022-09-03T09:56:36;1.30;;;1.10;;
52946;SDS011;45776;40.400;17.260;2022-09-03T10:00:06;2.63;;;0.80;;
52946;SDS011;45776;40.400;17.260;2022-09-03T10:03:49;3.40;;;1.10;;
52946;SDS011;45776;40.400;17.260;2022-09-03T10:10:49;2.30;;;1.10;;
52946;SDS011;45776;40.400;17.260;2022-09-03T10:14:20;5.15;;;1.35;;
52946;SDS011;45776;40.400;17.260;2022-09-03T10:21:31;2.75;;;0.85;;
52946;SDS011;45776;40.400;17.260;2022-09-03T10:25:02;4.20;;;1.38;;
52946;SDS011;45776;40.400;17.260;2022-09-03T10:28:31;3.10;;;1.10;;
52946;SDS011;45776;40.400;17.260;2022-09-03T10:35:42;3.13;;;1.20;;
52946;SDS011;45776;40.400;17.260;2022-09-03T10:50:33;4.20;;;1.30;;
52946;SDS011;45776;40.400;17.260;2022-09-03T10:58:07;2.00;;;1.00;;
52946;SDS011;45776;40.400;17.260;2022-09-03T11:05:52;2.13;;;1.40;;
52946;SDS011;45776;40.400;17.260;2022-09-03T11:16:37;4.45;;;1.17;;
52946;SDS011;45776;40.400;17.260;2022-09-03T11:20:14;2.13;;;1.27;;
52946;SDS011;45776;40.400;17.260;2022-09-03T11:23:43;2.28;;;1.00;;
52946;SDS011;45776;40.400;17.260;2022-09-03T11:31:01;4.90;;;1.30;;
52946;SDS011;45776;40.400;17.260;2022-09-03T11:34:42;2.65;;;0.85;;
52946;SDS011;45776;40.400;17.260;2022-09-03T11:38:18;4.63;;;1.33;;
52946;SDS011;45776;40.400;17.260;2022-09-03T11:41:42;3.22;;;0.88;;
52946;SDS011;45776;40.400;17.260;2022-09-03T11:45:59;1.92;;;0.80;;
52946;SDS011;45776;40.400;17.260;2022-09-03T11:48:56;3.05;;;0.90;;
52946;SDS011;45776;40.400;17.260;2022-09-03T11:55:05;3.45;;;1.00;;
52946;SDS011;45776;40.400;17.260;2022-09-03T11:57:31;3.33;;;1.02;;
52946;SDS011;45776;40.400;17.260;2022-09-03T12:00:36;1.83;;;1.10;;
52946;SDS011;45776;40.400;17.260;2022-09-03T12:03:03;2.15;;;0.75;;
52946;SDS011;45776;40.400;17.260;2022-09-03T12:13:57;3.35;;;1.02;;
52946;SDS011;45776;40.400;17.260;2022-09-03T12:17:47;3.88;;;1.00;;
52946;SDS011;45776;40.400;17.260;2022-09-03T12:20:37;3.60;;;1.02;;
52946;SDS011;45776;40.400;17.260;2022-09-03T12:23:03;2.20;;;1.27;;
52946;SDS011;45776;40.400;17.260;2022-09-03T12:26:27;1.83;;;0.88;;
52946;SDS011;45776;40.400;17.260;2022-09-03T12:33:17;3.15;;;0.80;;
52946;SDS011;45776;40.400;17.260;2022-09-03T12:36:50;2.50;;;0.70;;
52946;SDS011;45776;40.400;17.260;2022-09-03T12:40:26;2.20;;;0.90;;
52946;SDS011;45776;40.400;17.260;2022-09-03T12:42:53;2.83;;;1.13;;
52946;SDS011;45776;40.400;17.260;2022-09-03T12:46:23;1.23;;;0.80;;
52946;SDS011;45776;40.400;17.260;2022-09-03T12:49:49;1.92;;;0.90;;
52946;SDS011;45776;40.400;17.260;2022-09-03T12:53:20;2.28;;;0.98;;
52946;SDS011;45776;40.400;17.260;2022-09-03T12:56:46;3.95;;;1.02;;
52946;SDS011;45776;40.400;17.260;2022-09-03T13:00:20;2.20;;;1.05;;
52946;SDS011;45776;40.400;17.260;2022-09-03T13:03:48;2.83;;;0.70;;
52946;SDS011;45776;40.400;17.260;2022-09-03T13:07:32;1.70;;;0.80;;
52946;SDS011;45776;40.400;17.260;2022-09-03T13:10:59;2.33;;;0.90;;
52946;SDS011;45776;40.400;17.260;2022-09-03T13:14:28;2.88;;;1.58;;
52946;SDS011;45776;40.400;17.260;2022-09-03T13:24:56;4.93;;;0.82;;
52946;SDS011;45776;40.400;17.260;2022-09-03T13:31:57;1.85;;;0.80;;
52946;SDS011;45776;40.400;17.260;2022-09-03T13:35:32;2.25;;;0.70;;
52946;SDS011;45776;40.400;17.260;2022-09-03T13:39:17;1.73;;;0.50;;
52946;SDS011;45776;40.400;17.260;2022-09-03T13:42:52;2.50;;;0.60;;
52946;SDS011;45776;40.400;17.260;2022-09-03T13:45:40;2.28;;;0.70;;
52946;SDS011;45776;40.400;17.260;2022-09-03T13:49:26;2.95;;;0.90;;
52946;SDS011;45776;40.400;17.260;2022-09-03T13:52:52;3.83;;;0.57;;
52946;SDS011;45776;40.400;17.260;2022-09-03T13:59:13;6.32;;;1.00;;
52946;SDS011;45776;40.400;17.260;2022-09-03T14:02:50;2.33;;;0.75;;
52946;SDS011;45776;40.400;17.260;2022-09-03T14:20:16;4.10;;;0.70;;
52946;SDS011;45776;40.400;17.260;2022-09-03T14:23:50;1.73;;;0.75;;
52946;SDS011;45776;40.400;17.260;2022-09-03T14:27:07;2.80;;;0.90;;
52946;SDS011;45776;40.400;17.260;2022-09-03T14:34:30;2.88;;;0.70;;
52946;SDS011;45776;40.400;17.260;2022-09-03T14:49:13;2.53;;;0.77;;
52946;SDS011;45776;40.400;17.260;2022-09-03T14:52:57;5.47;;;1.20;;
52946;SDS011;45776;40.400;17.260;2022-09-03T15:08:27;2.50;;;0.75;;
52946;SDS011;45776;40.400;17.260;2022-09-03T15:11:34;1.55;;;0.73;;
52946;SDS011;45776;40.400;17.260;2022-09-03T15:15:16;2.42;;;0.90;;
52946;SDS011;45776;40.400;17.260;2022-09-03T15:23:12;1.77;;;0.90;;
52946;SDS011;45776;40.400;17.260;2022-09-03T15:26:55;2.03;;;0.60;;
52946;SDS011;45776;40.400;17.260;2022-09-03T15:31:01;0.98;;;0.63;;
52946;SDS011;45776;40.400;17.260;2022-09-03T15:34:52;1.95;;;0.82;;
52946;SDS011;45776;40.400;17.260;2022-09-03T15:42:35;4.05;;;0.75;;
52946;SDS011;45776;40.400;17.260;2022-09-03T15:50:05;2.30;;;0.60;;
52946;SDS011;45776;40.400;17.260;2022-09-03T16:01:05;1.08;;;0.50;;
52946;SDS011;45776;40.400;17.260;2022-09-03T16:08:43;1.30;;;0.30;;
52946;SDS011;45776;40.400;17.260;2022-09-03T16:12:19;1.48;;;0.70;;
52946;SDS011;45776;40.400;17.260;2022-09-03T16:15:56;2.10;;;0.50;;
52946;SDS011;45776;40.400;17.260;2022-09-03T16:19:46;2.60;;;0.70;;
52946;SDS011;45776;40.400;17.260;2022-09-03T16:23:20;0.82;;;0.43;;
52946;SDS011;45776;40.400;17.260;2022-09-03T16:26:54;2.35;;;0.60;;
52946;SDS011;45776;40.400;17.260;2022-09-03T16:30:45;1.48;;;0.52;;
52946;SDS011;45776;40.400;17.260;2022-09-03T16:34:07;2.03;;;0.70;;
52946;SDS011;45776;40.400;17.260;2022-09-03T16:37:45;1.85;;;0.57;;
52946;SDS011;45776;40.400;17.260;2022-09-03T16:44:57;1.92;;;0.82;;
52946;SDS011;45776;40.400;17.260;2022-09-03T17:04:58;3.33;;;0.80;;
52946;SDS011;45776;40.400;17.260;2022-09-03T17:13:32;4.40;;;0.85;;
52946;SDS011;45776;40.400;17.260;2022-09-03T17:24:42;2.92;;;0.95;;
52946;SDS011;45776;40.400;17.260;2022-09-03T17:36:05;1.50;;;0.80;;
52946;SDS011;45776;40.400;17.260;2022-09-03T17:39:44;1.02;;;0.80;;
52946;SDS011;45776;40.400;17.260;2022-09-03T17:50:27;2.10;;;0.75;;
52946;SDS011;45776;40.400;17.260;2022-09-03T17:54:26;1.00;;;0.80;;
52946;SDS011;45776;40.400;17.260;2022-09-03T18:01:57;1.27;;;0.60;;
52946;SDS011;45776;40.400;17.260;2022-09-03T18:09:08;1.85;;;0.90;;
52946;SDS011;45776;40.400;17.260;2022-09-03T18:13:05;5.05;;;0.73;;
52946;SDS011;45776;40.400;17.260;2022-09-03T18:16:40;3.33;;;0.90;;
52946;SDS011;45776;40.400;17.260;2022-09-03T18:20:09;3.15;;;1.10;;
52946;SDS011;45776;40.400;17.260;2022-09-03T18:27:46;2.45;;;0.80;;
52946;SDS011;45776;40.400;17.260;2022-09-03T18:31:29;4.53;;;0.95;;
52946;SDS011;45776;40.400;17.260;2022-09-03T18:39:06;1.00;;;0.68;;
52946;SDS011;45776;40.400;17.260;2022-09-03T18:43:02;3.15;;;0.60;;
52946;SDS011;45776;40.400;17.260;2022-09-03T18:47:30;3.05;;;1.00;;
52946;SDS011;45776;40.400;17.260;2022-09-03T18:51:12;2.50;;;0.75;;
52946;SDS011;45776;40.400;17.260;2022-09-03T18:55:17;3.25;;;0.77;;
52946;SDS011;45776;40.400;17.260;2022-09-03T18:59:21;5.00;;;1.00;;
52946;SDS011;45776;40.400;17.260;2022-09-03T19:03:21;2.35;;;0.90;;
52946;SDS011;45776;40.400;17.260;2022-09-03T19:07:14;1.77;;;0.75;;
52946;SDS011;45776;40.400;17.260;2022-09-03T19:15:20;2.90;;;0.50;;
52946;SDS011;45776;40.400;17.260;2022-09-03T19:23:11;4.43;;;0.82;;
52946;SDS011;45776;40.400;17.260;2022-09-03T19:26:57;4.00;;;2.20;;
52946;SDS011;45776;40.400;17.260;2022-09-03T19:31:02;7.88;;;2.97;;
52946;SDS011;45776;40.400;17.260;2022-09-03T19:35:05;5.38;;;2.65;;
52946;SDS011;45776;40.400;17.260;2022-09-03T19:39:34;4.38;;;1.98;;
52946;SDS011;45776;40.400;17.260;2022-09-03T19:47:06;5.32;;;2.20;;
52946;SDS011;45776;40.400;17.260;2022-09-03T19:51:30;3.67;;;1.95;;
52946;SDS011;45776;40.400;17.260;2022-09-03T19:55:24;4.85;;;2.10;;
52946;SDS011;45776;40.400;17.260;2022-09-03T19:59:17;6.97;;;2.20;;
52946;SDS011;45776;40.400;17.260;2022-09-03T20:03:00;5.05;;;2.05;;
52946;SDS011;45776;40.400;17.260;2022-09-03T20:06:46;5.68;;;2.53;;
52946;SDS011;45776;40.400;17.260;2022-09-03T20:10:32;5.95;;;2.28;;
52946;SDS011;45776;40.400;17.260;2022-09-03T20:13:58;5.90;;;2.50;;
52946;SDS011;45776;40.400;17.260;2022-09-03T20:17:26;4.25;;;2.00;;
52946;SDS011;45776;40.400;17.260;2022-09-03T20:25:02;10.43;;;2.17;;
52946;SDS011;45776;40.400;17.260;2022-09-03T20:47:15;4.95;;;1.60;;
52946;SDS011;45776;40.400;17.260;2022-09-03T20:50:53;4.68;;;1.73;;
52946;SDS011;45776;40.400;17.260;2022-09-03T20:58:11;4.93;;;1.40;;
52946;SDS011;45776;40.400;17.260;2022-09-03T21:02:00;3.08;;;1.73;;
52946;SDS011;45776;40.400;17.260;2022-09-03T21:26:35;2.97;;;1.53;;
52946;SDS011;45776;40.400;17.260;2022-09-03T21:30:00;4.82;;;2.40;;
52946;SDS011;45776;40.400;17.260;2022-09-03T21:32:47;2.92;;;1.73;;
52946;SDS011;45776;40.400;17.260;2022-09-03T21:36:10;3.47;;;1.40;;
52946;SDS011;45776;40.400;17.260;2022-09-03T22:00:54;2.92;;;1.30;;
52946;SDS011;45776;40.400;17.260;2022-09-03T22:04:30;2.65;;;1.50;;
52946;SDS011;45776;40.400;17.260;2022-09-03T22:08:21;3.47;;;1.88;;
52946;SDS011;45776;40.400;17.260;2022-09-03T22:15:04;5.25;;;1.98;;
52946;SDS011;45776;40.400;17.260;2022-09-03T22:18:37;3.25;;;1.50;;
52946;SDS011;45776;40.400;17.260;2022-09-03T22:22:05;2.72;;;1.90;;
52946;SDS011;45776;40.400;17.260;2022-09-03T22:33:34;6.05;;;1.98;;
52946;SDS011;45776;40.400;17.260;2022-09-03T22:37:02;2.33;;;1.75;;
52946;SDS011;45776;40.400;17.260;2022-09-03T22:51:08;3.55;;;1.92;;
52946;SDS011;45776;40.400;17.260;2022-09-03T22:58:28;4.00;;;2.00;;
52946;SDS011;45776;40.400;17.260;2022-09-03T23:02:02;3.28;;;2.08;;
52946;SDS011;45776;40.400;17.260;2022-09-03T23:09:34;4.88;;;2.53;;
52946;SDS011;45776;40.400;17.260;2022-09-03T23:17:02;6.55;;;2.00;;
52946;SDS011;45776;40.400;17.260;2022-09-03T23:20:31;7.20;;;2.35;;
52946;SDS011;45776;40.400;17.260;2022-09-03T23:24:31;6.85;;;2.00;;
52946;SDS011;45776;40.400;17.260;2022-09-03T23:27:56;4.82;;;2.25;;
52946;SDS011;45776;40.400;17.260;2022-09-03T23:31:26;4.03;;;2.05;;
52946;SDS011;45776;40.400;17.260;2022-09-03T23:34:51;6.65;;;2.30;;
52946;SDS011;45776;40.400;17.260;2022-09-03T23:38:22;3.05;;;1.70;;
52946;SDS011;45776;40.400;17.260;2022-09-03T23:45:41;3.72;;;1.50;;
52946;SDS011;45776;40.400;17.260;2022-09-03T23:49:15;3.42;;;1.55;;
52946;SDS011;45776;40.400;17.260;2022-09-03T23:52:55;3.42;;;1.60;;
52946;SDS011;45776;40.400;17.260;2022-09-03T23:56:47;3.35;;;1.77;;
